createdAt,value
2022-11-10T00:01:26.387Z,8.88
2022-11-10T00:04:19.549Z,7.72
2022-11-10T00:07:08.348Z,9.32
2022-11-10T00:10:01.297Z,9.18
2022-11-10T00:12:54.496Z,9.77
2022-11-10T00:16:01.283Z,9.40
2022-11-10T00:18:50.904Z,10.38
2022-11-10T00:21:39.305Z,9.90
2022-11-10T00:24:27.259Z,8.88
2022-11-10T00:27:20.052Z,9.05
2022-11-10T00:30:14.438Z,9.93
2022-11-10T00:33:06.945Z,10.75
2022-11-10T00:35:56.661Z,9.77
2022-11-10T00:38:45.140Z,9.95
2022-11-10T00:41:33.397Z,8.70
2022-11-10T00:44:21.336Z,9.77
2022-11-10T00:47:08.948Z,9.93
2022-11-10T00:49:57.686Z,9.32
2022-11-10T00:52:53.641Z,10.13
2022-11-10T00:55:43.239Z,9.48
2022-11-10T00:58:31.320Z,10.45
2022-11-10T01:01:21.014Z,10.70
2022-11-10T01:04:09.146Z,10.43
2022-11-10T01:06:56.945Z,10.90
2022-11-10T01:09:47.598Z,9.48
2022-11-10T01:12:35.329Z,10.48
2022-11-10T01:15:30.404Z,9.65
2022-11-10T01:18:18.336Z,9.88
2022-11-10T01:21:07.901Z,10.13
2022-11-10T01:24:00.735Z,9.90
2022-11-10T01:26:50.858Z,10.63
2022-11-10T01:29:38.848Z,11.13
2022-11-10T01:32:27.013Z,11.70
2022-11-10T01:35:15.300Z,10.43
2022-11-10T01:38:03.307Z,9.75
2022-11-10T01:41:01.508Z,10.90
2022-11-10T01:43:51.714Z,11.60
2022-11-10T01:46:42.576Z,10.05
2022-11-10T01:49:33.468Z,10.73
2022-11-10T01:52:22.414Z,11.70
2022-11-10T01:55:10.621Z,10.50
2022-11-10T01:58:03.596Z,11.10
2022-11-10T02:00:58.500Z,10.50
2022-11-10T02:03:51.842Z,8.85
2022-11-10T02:06:42.084Z,11.13
2022-11-10T02:09:30.038Z,10.52
2022-11-10T02:12:36.260Z,9.77
2022-11-10T02:15:48.858Z,11.38
2022-11-10T02:18:38.908Z,12.02
2022-11-10T02:21:28.763Z,10.80
2022-11-10T02:24:17.457Z,9.82
2022-11-10T02:27:05.301Z,11.15
2022-11-10T02:29:53.221Z,12.23
2022-11-10T02:32:51.200Z,11.52
2022-11-10T02:35:39.076Z,11.95
2022-11-10T02:38:28.991Z,11.68
2022-11-10T02:41:16.948Z,11.75
2022-11-10T02:44:10.701Z,11.07
2022-11-10T02:46:58.132Z,10.55
2022-11-10T02:49:46.827Z,12.02
2022-11-10T02:52:34.593Z,11.25
2022-11-10T02:55:29.396Z,11.82
2022-11-10T02:58:17.380Z,11.77
2022-11-10T03:04:01.159Z,10.70
2022-11-10T03:09:43.130Z,11.13
2022-11-10T03:12:34.910Z,10.10
2022-11-10T03:15:28.121Z,11.85
2022-11-10T03:18:21.213Z,11.30
2022-11-10T03:21:09.061Z,11.85
2022-11-10T03:24:01.951Z,11.88
2022-11-10T03:26:49.735Z,10.13
2022-11-10T03:29:42.329Z,10.65
2022-11-10T03:32:32.118Z,9.93
2022-11-10T03:35:25.267Z,10.73
2022-11-10T03:38:13.240Z,11.00
2022-11-10T03:41:18.644Z,11.18
2022-11-10T03:44:08.179Z,11.00
2022-11-10T03:46:57.807Z,9.43
2022-11-10T03:49:45.930Z,11.55
2022-11-10T03:52:34.042Z,11.30
2022-11-10T03:55:22.908Z,11.55
2022-11-10T03:58:20.632Z,11.77
2022-11-10T04:01:08.323Z,12.02
2022-11-10T04:03:58.838Z,12.15
2022-11-10T04:06:59.737Z,11.35
2022-11-10T04:09:47.828Z,11.38
2022-11-10T04:12:48.196Z,11.93
2022-11-10T04:15:45.443Z,10.75
2022-11-10T04:18:38.220Z,11.70
2022-11-10T04:24:23.979Z,12.15
2022-11-10T04:27:11.910Z,12.30
2022-11-10T04:30:05.792Z,12.77
2022-11-10T04:32:55.749Z,11.50
2022-11-10T04:35:43.516Z,12.57
2022-11-10T04:41:41.122Z,13.82
2022-11-10T04:44:29.245Z,13.32
2022-11-10T04:47:17.284Z,12.52
2022-11-10T04:50:13.085Z,11.98
2022-11-10T04:53:00.774Z,11.48
2022-11-10T04:55:50.769Z,12.60
2022-11-10T04:58:39.233Z,11.50
2022-11-10T05:01:31.883Z,12.25
2022-11-10T05:04:19.651Z,12.40
2022-11-10T05:07:13.187Z,12.15
2022-11-10T05:10:00.934Z,11.43
2022-11-10T05:12:53.137Z,12.45
2022-11-10T05:15:41.852Z,12.10
2022-11-10T05:18:29.972Z,11.68
2022-11-10T05:21:18.461Z,10.55
2022-11-10T05:24:06.675Z,11.27
2022-11-10T05:26:55.971Z,11.35
2022-11-10T05:29:45.809Z,11.40
2022-11-10T05:32:33.593Z,10.88
2022-11-10T05:38:09.826Z,10.23
2022-11-10T05:40:57.758Z,10.73
2022-11-10T05:43:45.664Z,10.90
2022-11-10T05:46:40.588Z,9.95
2022-11-10T05:49:29.054Z,10.23
2022-11-10T05:52:16.825Z,10.70
2022-11-10T05:55:04.731Z,9.40
2022-11-10T05:57:54.362Z,10.73
2022-11-10T06:00:41.969Z,10.68
2022-11-10T06:03:37.125Z,9.80
2022-11-10T06:06:25.212Z,9.50
2022-11-10T06:09:12.723Z,10.00
2022-11-10T06:12:03.168Z,9.60
2022-11-10T06:14:56.045Z,10.07
2022-11-10T06:17:43.923Z,11.38
2022-11-10T06:20:34.325Z,8.82
2022-11-10T06:23:22.551Z,11.32
2022-11-10T06:26:15.530Z,10.23
2022-11-10T06:29:08.787Z,9.70
2022-11-10T06:32:01.769Z,9.40
2022-11-10T06:34:49.466Z,9.85
2022-11-10T06:37:40.280Z,9.32
2022-11-10T06:40:27.905Z,9.73
2022-11-10T06:43:15.624Z,10.00
2022-11-10T06:46:03.349Z,9.77
2022-11-10T06:48:50.812Z,9.25
2022-11-10T06:51:39.259Z,9.73
2022-11-10T06:54:17.259Z,10.82
2022-11-10T06:57:05.303Z,11.85
2022-11-10T07:00:03.314Z,9.70
2022-11-10T07:02:39.235Z,8.63
2022-11-10T07:05:27.048Z,9.02
2022-11-10T07:08:17.482Z,9.50
2022-11-10T07:11:07.452Z,9.30
2022-11-10T07:13:55.648Z,9.25
2022-11-10T07:16:48.725Z,8.95
2022-11-10T07:19:38.048Z,8.70
2022-11-10T07:22:31.126Z,9.93
2022-11-10T07:25:18.954Z,8.85
2022-11-10T07:28:14.643Z,9.18
2022-11-10T07:31:04.123Z,9.25
2022-11-10T07:33:54.556Z,8.50
2022-11-10T07:36:43.386Z,8.65
2022-11-10T07:39:31.179Z,9.43
2022-11-10T07:42:18.943Z,9.20
2022-11-10T07:45:10.032Z,9.15
2022-11-10T07:48:01.285Z,10.13
2022-11-10T07:50:49.332Z,9.93
2022-11-10T07:53:38.511Z,8.95
2022-11-10T07:56:45.038Z,9.30
2022-11-10T07:59:33.005Z,9.27
2022-11-10T08:02:22.838Z,9.15
2022-11-10T08:05:03.581Z,8.93
2022-11-10T08:07:56.778Z,9.38
2022-11-10T08:10:45.023Z,9.73
2022-11-10T08:13:32.554Z,10.38
2022-11-10T08:16:20.566Z,9.65
2022-11-10T08:19:10.641Z,9.93
2022-11-10T08:21:58.687Z,10.07
2022-11-10T08:24:47.117Z,8.80
2022-11-10T08:27:35.141Z,10.60
2022-11-10T08:30:27.589Z,10.38
2022-11-10T08:33:18.004Z,9.80
2022-11-10T08:36:08.176Z,10.18
2022-11-10T08:38:58.044Z,10.30
2022-11-10T08:41:45.605Z,10.05
2022-11-10T08:44:36.318Z,10.30
2022-11-10T08:47:24.869Z,10.30
2022-11-10T08:50:13.121Z,9.85
2022-11-10T08:53:05.919Z,10.02
2022-11-10T08:56:01.601Z,10.32
2022-11-10T08:58:53.342Z,11.07
2022-11-10T09:01:41.264Z,10.35
2022-11-10T09:04:30.818Z,11.25
2022-11-10T09:07:18.750Z,10.68
2022-11-10T09:10:10.453Z,10.32
2022-11-10T09:13:02.022Z,12.00
2022-11-10T09:15:55.068Z,11.32
2022-11-10T09:18:43.138Z,10.95
2022-11-10T09:21:31.083Z,11.45
2022-11-10T09:24:19.989Z,10.65
2022-11-10T09:27:11.173Z,11.20
2022-11-10T09:30:04.656Z,11.20
2022-11-10T09:32:58.041Z,11.20
2022-11-10T09:35:45.890Z,10.75
2022-11-10T09:38:34.822Z,11.05
2022-11-10T09:41:22.987Z,11.90
2022-11-10T09:44:12.842Z,11.32
2022-11-10T09:47:03.142Z,11.07
2022-11-10T09:49:55.280Z,11.32
2022-11-10T09:52:44.095Z,11.10
2022-11-10T09:55:39.494Z,11.52
2022-11-10T09:58:33.995Z,9.23
2022-11-10T10:01:34.510Z,11.43
2022-11-10T10:04:35.228Z,11.77
2022-11-10T10:07:28.530Z,11.80
2022-11-10T10:10:22.359Z,10.52
2022-11-10T10:13:50.057Z,11.60
2022-11-10T10:16:48.461Z,11.93
2022-11-10T10:19:44.158Z,11.27
2022-11-10T10:23:06.168Z,11.82
2022-11-10T10:25:55.377Z,12.20
2022-11-10T10:28:47.156Z,12.23
2022-11-10T10:31:37.777Z,10.88
2022-11-10T10:34:31.357Z,10.98
2022-11-10T10:37:27.093Z,11.48
2022-11-10T10:40:21.348Z,12.57
2022-11-10T10:43:11.328Z,11.93
2022-11-10T10:46:08.681Z,12.60
2022-11-10T10:49:33.201Z,11.95
2022-11-10T10:52:25.003Z,12.75
2022-11-10T10:55:18.372Z,11.88
2022-11-10T10:58:20.413Z,11.65
2022-11-10T11:01:26.648Z,12.60
2022-11-10T11:04:30.424Z,12.80
2022-11-10T11:07:26.570Z,13.07
2022-11-10T11:10:22.680Z,12.57
2022-11-10T11:13:22.198Z,13.20
2022-11-10T11:16:12.109Z,13.63
2022-11-10T11:19:00.645Z,11.43
2022-11-10T11:22:04.040Z,11.73
2022-11-10T11:25:01.561Z,11.90
2022-11-10T11:28:03.255Z,11.90
2022-11-10T11:31:03.813Z,11.87
2022-11-10T11:34:03.112Z,12.15
2022-11-10T11:37:05.367Z,12.73
2022-11-10T11:39:56.062Z,12.50
2022-11-10T11:43:03.298Z,12.65
2022-11-10T11:45:58.614Z,11.65
2022-11-10T11:49:01.611Z,11.25
2022-11-10T11:51:55.593Z,12.23
2022-11-10T11:55:06.226Z,12.23
2022-11-10T11:58:23.172Z,11.50
2022-11-10T12:01:25.761Z,10.93
2022-11-10T12:04:39.712Z,11.95
2022-11-10T12:07:44.729Z,11.48
2022-11-10T12:10:45.709Z,12.20
2022-11-10T12:13:55.375Z,11.60
2022-11-10T12:16:49.909Z,11.25
2022-11-10T12:19:46.776Z,11.85
2022-11-10T12:22:45.280Z,11.70
2022-11-10T12:25:45.465Z,11.27
2022-11-10T12:28:36.505Z,12.07
2022-11-10T12:31:32.015Z,12.57
2022-11-10T12:34:30.300Z,12.35
2022-11-10T12:37:27.841Z,11.20
2022-11-10T12:40:18.451Z,10.77
2022-11-10T12:43:13.927Z,11.07
2022-11-10T12:46:07.618Z,9.80
2022-11-10T12:55:49.690Z,11.60
2022-11-10T12:58:37.620Z,12.32
2022-11-10T13:01:25.634Z,12.05
2022-11-10T13:04:16.600Z,13.23
2022-11-10T13:07:11.785Z,13.40
2022-11-10T13:10:18.037Z,12.88
2022-11-10T13:13:17.204Z,13.02
2022-11-10T13:16:05.362Z,13.25
2022-11-10T13:18:55.041Z,13.93
2022-11-10T13:22:10.797Z,13.90
2022-11-10T13:25:28.315Z,14.23
2022-11-10T13:28:53.063Z,12.75
2022-11-10T13:31:43.070Z,13.52
2022-11-10T13:34:38.576Z,10.82
2022-11-10T13:37:53.962Z,12.63
2022-11-10T13:40:43.959Z,13.35
2022-11-10T13:43:28.698Z,11.30
2022-11-10T13:46:17.990Z,13.00
2022-11-10T13:49:21.970Z,13.68
2022-11-10T13:52:17.898Z,13.15
2022-11-10T13:55:29.839Z,14.55
2022-11-10T13:58:26.131Z,13.38
2022-11-10T14:01:29.998Z,14.07
2022-11-10T14:04:42.177Z,14.65
2022-11-10T14:07:33.497Z,14.07
2022-11-10T14:10:36.053Z,14.00
2022-11-10T14:13:30.618Z,14.00
2022-11-10T14:16:20.944Z,13.05
2022-11-10T14:19:31.638Z,14.98
2022-11-10T14:22:28.317Z,12.73
2022-11-10T14:28:29.011Z,14.32
2022-11-10T14:31:24.344Z,15.27
2022-11-10T14:34:18.964Z,16.45
2022-11-10T14:37:19.593Z,13.70
2022-11-10T14:40:19.827Z,15.90
2022-11-10T14:43:08.006Z,15.20
2022-11-10T14:45:56.234Z,16.60
2022-11-10T14:48:43.817Z,15.48
2022-11-10T14:51:36.628Z,15.05
2022-11-10T14:54:28.021Z,15.15
2022-11-10T14:57:20.531Z,15.10
2022-11-10T15:00:10.820Z,14.35
2022-11-10T15:03:00.153Z,15.77
2022-11-10T15:05:50.380Z,13.77
2022-11-10T15:08:41.590Z,14.73
2022-11-10T15:14:39.194Z,16.42
2022-11-10T15:17:46.434Z,14.45
2022-11-10T15:20:39.826Z,16.15
2022-11-10T15:23:36.097Z,16.50
2022-11-10T15:26:28.687Z,16.85
2022-11-10T15:29:27.850Z,16.25
2022-11-10T15:32:21.693Z,17.33
2022-11-10T15:35:30.291Z,17.40
2022-11-10T15:38:29.847Z,19.20
2022-11-10T15:41:27.476Z,17.15
2022-11-10T15:44:21.503Z,15.68
2022-11-10T15:47:14.665Z,16.90
2022-11-10T15:50:03.162Z,17.90
2022-11-10T15:52:51.220Z,17.17
2022-11-10T15:55:39.518Z,17.58
2022-11-10T15:58:37.708Z,17.85
2022-11-10T16:01:27.834Z,17.88
2022-11-10T16:04:26.158Z,17.30
2022-11-10T16:07:14.216Z,17.42
2022-11-10T16:10:07.206Z,18.80
2022-11-10T16:12:55.599Z,17.95
2022-11-10T16:15:49.060Z,17.67
2022-11-10T16:18:43.692Z,18.05
2022-11-10T16:21:31.895Z,18.08
2022-11-10T16:24:20.259Z,19.08
2022-11-10T16:27:09.844Z,18.55
2022-11-10T16:29:57.889Z,19.05
2022-11-10T16:32:57.304Z,19.25
2022-11-10T16:35:50.516Z,18.30
2022-11-10T16:38:38.556Z,17.80
2022-11-10T16:41:26.893Z,18.55
2022-11-10T16:44:02.271Z,18.27
2022-11-10T16:46:56.886Z,17.90
2022-11-10T16:49:48.727Z,18.38
2022-11-10T16:52:38.653Z,17.65
2022-11-10T16:55:26.397Z,18.95
2022-11-10T16:58:14.147Z,17.73
2022-11-10T17:01:09.921Z,18.75
2022-11-10T17:04:01.408Z,19.95
2022-11-10T17:06:49.491Z,17.30
2022-11-10T17:09:44.648Z,18.70
2022-11-10T17:12:20.285Z,17.95
2022-11-10T17:15:09.602Z,18.15
2022-11-10T17:18:05.676Z,18.63
2022-11-10T17:20:55.269Z,18.30
2022-11-10T17:23:43.228Z,16.88
2022-11-10T17:26:34.193Z,18.45
2022-11-10T17:29:29.293Z,16.83
2022-11-10T17:32:24.221Z,18.02
2022-11-10T17:35:19.935Z,17.20
2022-11-10T17:38:11.427Z,18.48
2022-11-10T17:44:23.699Z,17.05
2022-11-10T17:47:11.912Z,15.82
2022-11-10T17:50:00.140Z,16.77
2022-11-10T17:52:54.409Z,13.50
2022-11-10T17:55:42.279Z,16.77
2022-11-10T17:58:35.350Z,17.23
2022-11-10T18:01:26.049Z,14.38
2022-11-10T18:04:19.896Z,15.25
2022-11-10T18:07:07.519Z,16.50
2022-11-10T18:09:55.113Z,13.68
2022-11-10T18:12:43.103Z,16.42
2022-11-10T18:15:31.562Z,16.85
2022-11-10T18:18:20.897Z,16.27
2022-11-10T18:21:14.433Z,15.18
2022-11-10T18:24:02.659Z,15.98
2022-11-10T18:26:50.755Z,16.60
2022-11-10T18:29:38.733Z,17.80
2022-11-10T18:32:27.024Z,17.45
2022-11-10T18:35:17.583Z,18.23
2022-11-10T18:38:05.859Z,17.83
2022-11-10T18:40:55.727Z,16.13
2022-11-10T18:43:48.816Z,18.92
2022-11-10T18:46:36.749Z,17.27
2022-11-10T18:49:24.569Z,16.83
2022-11-10T18:52:14.540Z,15.30
2022-11-10T18:55:02.838Z,16.40
2022-11-10T18:57:55.705Z,15.15
2022-11-10T19:00:44.007Z,16.92
2022-11-10T19:03:32.430Z,15.30
2022-11-10T19:06:20.473Z,16.73
2022-11-10T19:09:10.960Z,15.88
2022-11-10T19:11:47.033Z,18.73
2022-11-10T19:14:34.953Z,18.48
2022-11-10T19:17:23.033Z,15.63
2022-11-10T19:20:14.380Z,18.48
2022-11-10T19:23:02.533Z,18.13
2022-11-10T19:26:01.227Z,17.63
2022-11-10T19:28:49.648Z,18.77
2022-11-10T19:31:37.990Z,15.85
2022-11-10T19:34:25.810Z,18.48
2022-11-10T19:37:13.988Z,19.75
2022-11-10T19:40:13.204Z,13.65
2022-11-10T19:43:06.169Z,20.52
2022-11-10T19:46:07.786Z,19.80
2022-11-10T19:48:56.631Z,16.42
2022-11-10T19:51:44.620Z,19.85
2022-11-10T19:54:32.822Z,20.58
2022-11-10T19:57:20.792Z,20.42
2022-11-10T20:00:12.938Z,19.23
2022-11-10T20:03:01.037Z,19.95
2022-11-10T20:06:00.607Z,20.58
2022-11-10T20:08:49.616Z,19.85
2022-11-10T20:11:37.747Z,20.05
2022-11-10T20:14:34.051Z,20.08
2022-11-10T20:17:23.710Z,19.90
2022-11-10T20:20:12.172Z,18.02
2022-11-10T20:23:03.572Z,19.30
2022-11-10T20:25:56.402Z,19.42
2022-11-10T20:28:45.460Z,18.65
2022-11-10T20:31:33.412Z,20.35
2022-11-10T20:34:23.388Z,19.70
2022-11-10T20:37:21.550Z,16.42
2022-11-10T20:40:42.317Z,18.00
2022-11-10T20:43:25.476Z,18.58
2022-11-10T20:46:33.424Z,19.55
2022-11-10T20:49:26.189Z,18.88
2022-11-10T20:52:13.865Z,19.70
2022-11-10T20:55:02.880Z,19.65
2022-11-10T20:58:03.355Z,19.88
2022-11-10T21:00:52.261Z,19.23
2022-11-10T21:03:45.308Z,18.05
2022-11-10T21:06:36.600Z,19.25
2022-11-10T21:09:24.704Z,18.13
2022-11-10T21:12:13.006Z,16.13
2022-11-10T21:15:01.467Z,17.02
2022-11-10T21:17:49.644Z,17.17
2022-11-10T21:20:37.617Z,18.27
2022-11-10T21:23:27.431Z,16.85
2022-11-10T21:26:15.327Z,14.98
2022-11-10T21:29:04.048Z,17.10
2022-11-10T21:31:53.256Z,14.65
2022-11-10T21:34:41.219Z,17.50
2022-11-10T21:37:28.934Z,17.00
2022-11-10T21:40:19.104Z,18.75
2022-11-10T21:43:06.702Z,15.32
2022-11-10T21:45:58.324Z,16.10
2022-11-10T21:48:46.633Z,16.60
2022-11-10T21:51:40.109Z,17.98
2022-11-10T21:54:28.182Z,17.55
2022-11-10T21:57:19.424Z,16.23
2022-11-10T22:00:08.710Z,17.00
2022-11-10T22:03:03.176Z,17.67
2022-11-10T22:05:50.824Z,16.17
2022-11-10T22:08:40.655Z,12.93
2022-11-10T22:11:41.543Z,16.23
2022-11-10T22:14:45.737Z,15.10
2022-11-10T22:17:48.674Z,17.13
2022-11-10T22:20:41.836Z,15.75
2022-11-10T22:23:42.817Z,16.88
2022-11-10T22:26:30.974Z,15.70
2022-11-10T22:29:19.166Z,13.60
2022-11-10T22:32:09.419Z,16.85
2022-11-10T22:35:02.240Z,16.60
2022-11-10T22:37:50.136Z,16.30
2022-11-10T22:40:56.835Z,16.83
2022-11-10T22:43:57.647Z,16.70
2022-11-10T22:46:47.754Z,17.50
2022-11-10T22:49:37.515Z,16.90
2022-11-10T22:52:25.341Z,17.90
2022-11-10T22:55:01.092Z,16.95
2022-11-10T22:57:49.185Z,18.45
2022-11-10T23:00:37.260Z,17.35
2022-11-10T23:03:24.919Z,18.15
2022-11-10T23:06:25.588Z,17.48
2022-11-10T23:09:13.683Z,15.68
2022-11-10T23:12:07.672Z,17.98
2022-11-10T23:14:55.419Z,18.55
2022-11-10T23:17:43.300Z,17.92
2022-11-10T23:20:30.907Z,19.65
2022-11-10T23:23:26.297Z,18.20
2022-11-10T23:26:16.132Z,18.67
2022-11-10T23:29:09.292Z,19.15
2022-11-10T23:31:57.181Z,19.75
2022-11-10T23:34:45.457Z,19.10
2022-11-10T23:37:34.303Z,20.63
2022-11-10T23:40:24.094Z,18.90
2022-11-10T23:43:11.587Z,19.25
2022-11-10T23:46:06.857Z,20.40
2022-11-10T23:48:55.067Z,20.20
2022-11-10T23:51:43.233Z,19.60
2022-11-10T23:54:31.093Z,19.80
2022-11-10T23:57:09.009Z,19.58
2022-11-10T23:59:56.666Z,19.45
